Time;durP1;ratioP1;P1;durP2;ratioP2;P2;SDS_P1;SDS_P2;PMS_P1;PMS_P2;Temp;Humidity;BMP_temperature;BMP_pressure;BME280_temperature;BME280_humidity;BME280_pressure;Samples;Min_cycle;Max_cycle;Signal;HPM_P1;HPM_P2
2021/05/03 00:00:11;;;;;;;1.30;0.50;;;;;;;;;;10136401;28;20058;-66
2021/05/03 00:05:18;;;;;;;1.35;0.57;;;;;;;;;;10144195;28;20090;-67
2021/05/03 00:10:15;;;;;;;3.72;1.13;;;;;;;;;;10147598;28;20038;-68
2021/05/03 00:15:14;;;;;;;3.83;0.50;;;;;;;;;;10161027;28;20038;-66
2021/05/03 00:20:12;;;;;;;0.52;0.50;;;;;;;;;;10164889;28;20387;-66
2021/05/03 00:25:09;;;;;;;0.83;0.43;;;;;;;;;;10148720;28;20031;-66
2021/05/03 00:30:07;;;;;;;3.77;0.73;;;;;;;;;;10157836;28;20118;-66
2021/05/03 00:35:05;;;;;;;1.70;0.50;;;;;;;;;;10151569;28;20045;-66
2021/05/03 00:40:03;;;;;;;1.90;0.40;;;;;;;;;;10173209;28;20094;-67
2021/05/03 00:45:29;;;;;;;1.10;0.40;;;;;;;;;;10174253;28;20035;-69
2021/05/03 00:50:29;;;;;;;0.85;0.63;;;;;;;;;;10163836;28;20041;-66
2021/05/03 00:55:27;;;;;;;0.60;0.57;;;;;;;;;;10167702;28;20078;-66
2021/05/03 01:00:26;;;;;;;2.05;0.43;;;;;;;;;;10138421;28;20039;-66
2021/05/03 01:05:27;;;;;;;1.88;0.68;;;;;;;;;;10156079;28;20121;-66
2021/05/03 01:10:25;;;;;;;0.60;0.57;;;;;;;;;;10173265;28;20357;-65
2021/05/03 01:15:23;;;;;;;1.65;0.70;;;;;;;;;;10166706;28;20463;-67
2021/05/03 01:20:21;;;;;;;1.85;0.50;;;;;;;;;;10166575;28;20038;-67
2021/05/03 01:25:19;;;;;;;0.70;0.70;;;;;;;;;;10167723;28;20062;-66
2021/05/03 01:30:16;;;;;;;0.30;0.30;;;;;;;;;;10163823;28;20039;-68
2021/05/03 01:35:14;;;;;;;1.97;0.40;;;;;;;;;;10171903;28;20030;-67
2021/05/03 01:40:12;;;;;;;0.30;0.30;;;;;;;;;;10152168;28;20412;-67
2021/05/03 01:45:10;;;;;;;1.13;0.57;;;;;;;;;;10140336;28;20277;-67
2021/05/03 01:50:08;;;;;;;0.52;0.40;;;;;;;;;;10158230;28;20031;-68
2021/05/03 01:55:06;;;;;;;0.57;0.53;;;;;;;;;;10164779;28;20039;-66
2021/05/03 02:00:05;;;;;;;1.23;0.43;;;;;;;;;;10154533;28;20508;-67
2021/05/03 02:05:04;;;;;;;1.90;0.50;;;;;;;;;;10161596;28;20036;-67
2021/05/03 02:10:01;;;;;;;;;;;;;;;;;;10166283;28;20062;-68
2021/05/03 02:14:59;;;;;;;1.17;0.80;;;;;;;;;;10128000;28;20343;-68
2021/05/03 02:19:56;;;;;;;1.60;0.70;;;;;;;;;;10172569;28;20067;-69
2021/05/03 02:24:53;;;;;;;2.43;0.50;;;;;;;;;;10145035;28;20043;-67
2021/05/03 02:29:51;;;;;;;0.60;0.60;;;;;;;;;;10131591;28;20035;-67
2021/05/03 02:34:48;;;;;;;0.70;0.70;;;;;;;;;;10158291;28;20106;-68
2021/05/03 02:39:45;;;;;;;1.60;0.67;;;;;;;;;;10175264;28;20037;-67
2021/05/03 02:44:43;;;;;;;0.70;0.53;;;;;;;;;;10148629;28;20237;-65
2021/05/03 02:49:41;;;;;;;2.90;0.53;;;;;;;;;;10168509;28;20523;-66
2021/05/03 02:54:38;;;;;;;0.40;0.40;;;;;;;;;;10166211;28;20050;-66
2021/05/03 02:59:35;;;;;;;0.67;0.67;;;;;;;;;;10165911;28;20039;-65
2021/05/03 03:04:33;;;;;;;0.43;0.43;;;;;;;;;;10150448;28;20035;-68
2021/05/03 03:09:30;;;;;;;2.13;0.63;;;;;;;;;;10161047;28;20027;-68
2021/05/03 03:14:28;;;;;;;2.83;0.97;;;;;;;;;;10147440;28;20122;-67
2021/05/03 03:19:25;;;;;;;0.63;0.53;;;;;;;;;;10175226;28;20604;-67
2021/05/03 03:24:22;;;;;;;0.50;0.50;;;;;;;;;;10172322;28;20110;-66
2021/05/03 03:29:20;;;;;;;9.83;3.30;;;;;;;;;;10176274;28;20035;-67
2021/05/03 03:34:17;;;;;;;8.20;3.20;;;;;;;;;;10157254;28;20038;-66
2021/05/03 03:39:15;;;;;;;2.77;1.50;;;;;;;;;;10174964;28;20361;-67
2021/05/03 03:44:12;;;;;;;2.00;1.30;;;;;;;;;;10176784;28;20101;-67
2021/05/03 03:49:09;;;;;;;5.67;3.40;;;;;;;;;;10169449;28;20090;-67
2021/05/03 03:54:07;;;;;;;6.97;3.13;;;;;;;;;;10165145;28;20035;-65
2021/05/03 03:59:07;;;;;;;6.33;2.93;;;;;;;;;;10166114;28;20047;-67
2021/05/03 04:04:21;;;;;;;6.65;3.05;;;;;;;;;;10152944;28;20125;-68
2021/05/03 04:09:33;;;;;;;3.55;2.17;;;;;;;;;;10148721;28;20035;-67
2021/05/03 04:25:14;;;;;;;3.90;2.53;;;;;;;;;;10167248;28;20505;-68
2021/05/03 04:30:12;;;;;;;15.43;6.35;;;;;;;;;;10140232;28;20038;-67
2021/05/03 04:35:09;;;;;;;24.03;10.10;;;;;;;;;;10163838;28;20051;-67
2021/05/03 04:40:07;;;;;;;25.57;8.83;;;;;;;;;;10165667;28;20627;-66
2021/05/03 04:45:05;;;;;;;15.07;5.80;;;;;;;;;;10169186;28;20045;-67
2021/05/03 04:50:02;;;;;;;12.80;5.90;;;;;;;;;;10166738;28;20476;-67
2021/05/03 04:55:00;;;;;;;9.30;4.37;;;;;;;;;;10171907;28;20118;-69
2021/05/03 04:59:58;;;;;;;11.27;3.85;;;;;;;;;;10138235;28;20042;-67
2021/05/03 05:04:56;;;;;;;13.87;5.13;;;;;;;;;;10140998;28;20027;-67
2021/05/03 05:09:55;;;;;;;17.17;5.65;;;;;;;;;;10144720;28;20031;-67
2021/05/03 05:14:52;;;;;;;;;;;;;;;;;;10169096;28;20411;-67
2021/05/03 05:19:50;;;;;;;19.13;7.13;;;;;;;;;;10157147;28;20547;-67
2021/05/03 05:24:47;;;;;;;16.60;5.50;;;;;;;;;;10152117;28;20539;-65
2021/05/03 05:29:45;;;;;;;18.37;6.03;;;;;;;;;;10162965;28;20038;-65
2021/05/03 05:34:42;;;;;;;20.07;5.83;;;;;;;;;;10144784;28;20441;-67
2021/05/03 05:39:39;;;;;;;10.93;4.23;;;;;;;;;;10159008;28;20129;-68
2021/05/03 05:44:37;;;;;;;13.50;5.23;;;;;;;;;;10166639;28;20035;-67
2021/05/03 05:49:34;;;;;;;14.43;5.87;;;;;;;;;;10147457;28;20420;-69
2021/05/03 05:54:32;;;;;;;19.33;7.17;;;;;;;;;;10151956;28;20075;-67
2021/05/03 05:59:29;;;;;;;24.90;9.37;;;;;;;;;;10155004;28;20066;-65
2021/05/03 06:04:27;;;;;;;15.43;5.13;;;;;;;;;;10138588;28;20043;-68
2021/05/03 06:09:24;;;;;;;18.33;6.70;;;;;;;;;;10149304;28;20034;-69
2021/05/03 06:14:22;;;;;;;22.03;9.13;;;;;;;;;;10144267;28;20035;-70
2021/05/03 06:19:19;;;;;;;17.60;6.63;;;;;;;;;;10148093;28;20050;-67
2021/05/03 06:24:16;;;;;;;22.10;8.27;;;;;;;;;;10140619;28;20122;-68
2021/05/03 06:29:14;;;;;;;18.87;8.07;;;;;;;;;;10136540;28;20162;-67
2021/05/03 06:34:11;;;;;;;24.00;10.00;;;;;;;;;;10153710;28;20416;-70
2021/05/03 06:39:09;;;;;;;23.97;8.03;;;;;;;;;;10152126;28;20572;-69
2021/05/03 06:44:06;;;;;;;19.83;8.40;;;;;;;;;;10146181;28;20456;-70
2021/05/03 06:49:03;;;;;;;20.70;7.97;;;;;;;;;;10132104;28;20404;-67
2021/05/03 06:54:01;;;;;;;26.10;8.97;;;;;;;;;;10141704;28;21551;-68
2021/05/03 06:58:58;;;;;;;15.80;6.80;;;;;;;;;;10159065;28;20039;-68
2021/05/03 07:03:55;;;;;;;16.90;6.10;;;;;;;;;;10155486;28;20043;-65
2021/05/03 07:08:53;;;;;;;15.17;6.23;;;;;;;;;;10149479;28;21022;-65
2021/05/03 07:13:50;;;;;;;16.33;5.10;;;;;;;;;;10145388;28;20042;-68
2021/05/03 07:18:49;;;;;;;10.80;3.50;;;;;;;;;;10135720;28;20121;-66
2021/05/03 07:23:49;;;;;;;15.68;4.45;;;;;;;;;;10141448;28;20060;-67
2021/05/03 07:28:46;;;;;;;15.02;4.28;;;;;;;;;;10163131;28;20035;-67
2021/05/03 07:33:43;;;;;;;12.53;3.70;;;;;;;;;;10155359;28;20022;-66
2021/05/03 07:38:41;;;;;;;13.67;4.23;;;;;;;;;;10157093;28;20066;-68
2021/05/03 07:43:38;;;;;;;14.37;3.80;;;;;;;;;;10152692;28;20557;-68
2021/05/03 07:48:36;;;;;;;11.87;3.53;;;;;;;;;;10149493;28;20578;-68
2021/05/03 07:53:33;;;;;;;10.40;2.50;;;;;;;;;;10151557;28;20539;-66
2021/05/03 07:58:31;;;;;;;8.73;2.27;;;;;;;;;;10142254;28;20658;-68
2021/05/03 08:03:29;;;;;;;6.87;3.00;;;;;;;;;;10150443;28;20031;-67
2021/05/03 08:08:27;;;;;;;7.70;2.72;;;;;;;;;;10125052;28;20125;-69
2021/05/03 08:13:27;;;;;;;9.57;3.10;;;;;;;;;;10157885;28;20070;-70
2021/05/03 08:18:25;;;;;;;12.48;3.60;;;;;;;;;;10146638;28;20514;-69
2021/05/03 08:23:23;;;;;;;6.20;2.40;;;;;;;;;;10152338;28;20117;-67
2021/05/03 08:28:21;;;;;;;8.87;3.37;;;;;;;;;;10151193;28;20079;-67
2021/05/03 08:33:19;;;;;;;11.18;3.03;;;;;;;;;;10126027;28;20640;-67
2021/05/03 08:38:18;;;;;;;7.47;2.00;;;;;;;;;;10150074;28;20040;-68
2021/05/03 08:43:16;;;;;;;4.55;1.80;;;;;;;;;;10147859;28;20274;-67
2021/05/03 08:48:23;;;;;;;2.80;1.17;;;;;;;;;;10129127;28;21200;-67
2021/05/03 08:53:40;;;;;;;2.92;1.67;;;;;;;;;;10102771;28;20038;-68
2021/05/03 08:58:38;;;;;;;3.13;2.22;;;;;;;;;;10108696;28;20043;-68
2021/05/03 09:03:36;;;;;;;2.78;2.10;;;;;;;;;;10157269;28;20019;-67
2021/05/03 09:08:33;;;;;;;3.73;1.33;;;;;;;;;;10138551;28;20331;-68
2021/05/03 09:13:32;;;;;;;3.77;2.03;;;;;;;;;;10143067;28;20286;-68
2021/05/03 09:18:30;;;;;;;1.77;1.67;;;;;;;;;;10135904;28;20516;-68
2021/05/03 09:23:28;;;;;;;2.97;1.45;;;;;;;;;;10160854;28;20515;-69
2021/05/03 09:28:27;;;;;;;2.30;1.50;;;;;;;;;;10155647;28;20039;-68
2021/05/03 09:33:28;;;;;;;2.55;1.58;;;;;;;;;;10147605;28;20658;-68
2021/05/03 09:38:39;;;;;;;2.25;1.08;;;;;;;;;;10158318;28;20039;-68
2021/05/03 09:43:38;;;;;;;1.52;0.70;;;;;;;;;;10151540;28;20038;-68
2021/05/03 09:48:36;;;;;;;3.17;1.48;;;;;;;;;;10150874;28;20493;-68
2021/05/03 09:53:34;;;;;;;3.10;1.98;;;;;;;;;;10159430;28;20035;-69
2021/05/03 09:58:37;;;;;;;1.47;1.37;;;;;;;;;;10153591;28;20063;-68
2021/05/03 10:03:42;;;;;;;1.63;1.20;;;;;;;;;;10155758;28;20027;-68
2021/05/03 10:08:42;;;;;;;2.40;1.35;;;;;;;;;;10164960;28;20516;-68
2021/05/03 10:13:40;;;;;;;2.67;1.63;;;;;;;;;;10160221;28;20109;-66
2021/05/03 10:18:38;;;;;;;0.60;0.60;;;;;;;;;;10150611;28;20118;-67
2021/05/03 10:23:40;;;;;;;0.88;0.75;;;;;;;;;;10158683;28;20080;-68
2021/05/03 10:28:50;;;;;;;1.98;0.90;;;;;;;;;;10149874;28;20047;-69
2021/05/03 10:33:47;;;;;;;1.15;0.85;;;;;;;;;;10158039;28;20197;-67
2021/05/03 10:38:45;;;;;;;0.67;0.67;;;;;;;;;;10143361;28;20148;-68
2021/05/03 10:43:44;;;;;;;2.17;1.80;;;;;;;;;;10145902;28;20011;-68
2021/05/03 10:54:17;;;;;;;5.22;3.28;;;;;;;;;;10128033;28;20091;-68
2021/05/03 10:59:16;;;;;;;3.63;3.30;;;;;;;;;;10136708;28;20265;-69
2021/05/03 11:04:13;;;;;;;;;;;;;;;;;;10145343;28;20038;-67
2021/05/03 11:09:33;;;;;;;2.22;1.85;;;;;;;;;;10141058;28;19914;-67
2021/05/03 11:14:33;;;;;;;2.67;2.42;;;;;;;;;;10161505;28;20050;-67
2021/05/03 11:24:44;;;;;;;4.97;2.17;;;;;;;;;;10148602;28;20071;-66
2021/05/03 11:29:55;;;;;;;5.38;3.80;;;;;;;;;;10139036;28;20163;-66
2021/05/03 11:35:41;;;;;;;3.80;3.00;;;;;;;;;;10158197;28;20043;-66
2021/05/03 11:45:43;;;;;;;4.40;4.00;;;;;;;;;;10080528;28;20049;-67
2021/05/03 11:50:41;;;;;;;4.93;2.90;;;;;;;;;;10129119;28;20035;-66
2021/05/03 11:55:38;;;;;;;3.00;1.10;;;;;;;;;;10150143;28;20147;-69
2021/05/03 12:00:36;;;;;;;1.33;0.90;;;;;;;;;;10134856;28;20054;-66
2021/05/03 12:05:34;;;;;;;1.08;0.88;;;;;;;;;;10134501;28;20480;-66
2021/05/03 12:10:31;;;;;;;2.58;1.65;;;;;;;;;;10151034;28;20396;-67
2021/05/03 12:15:30;;;;;;;5.60;2.93;;;;;;;;;;10135406;28;20059;-66
2021/05/03 12:20:29;;;;;;;3.17;1.92;;;;;;;;;;10157789;28;20579;-66
2021/05/03 12:25:27;;;;;;;2.70;1.27;;;;;;;;;;10129780;28;20047;-66
2021/05/03 12:30:25;;;;;;;6.30;3.40;;;;;;;;;;10152336;28;20050;-66
2021/05/03 12:35:23;;;;;;;7.80;2.13;;;;;;;;;;10147196;28;20051;-68
2021/05/03 12:40:24;;;;;;;1.55;1.20;;;;;;;;;;10140186;28;20058;-66
2021/05/03 12:45:34;;;;;;;4.88;3.80;;;;;;;;;;10166030;28;20035;-65
2021/05/03 12:50:51;;;;;;;2.70;1.58;;;;;;;;;;10147153;28;20054;-66
2021/05/03 13:01:14;;;;;;;4.03;1.77;;;;;;;;;;10147652;28;20134;-66
2021/05/03 13:32:31;;;;;;;2.45;1.48;;;;;;;;;;10117441;28;20039;-65
2021/05/03 13:37:28;;;;;;;1.60;1.50;;;;;;;;;;10118931;28;20076;-67
2021/05/03 13:42:26;;;;;;;1.73;1.27;;;;;;;;;;10100629;28;20293;-67
2021/05/03 13:47:23;;;;;;;6.93;3.10;;;;;;;;;;10115816;28;20043;-66
2021/05/03 13:52:21;;;;;;;0.90;0.80;;;;;;;;;;10119056;28;20158;-67
2021/05/03 13:57:18;;;;;;;1.90;1.60;;;;;;;;;;10094753;28;20035;-65
2021/05/03 14:02:17;;;;;;;4.88;3.10;;;;;;;;;;10098082;28;20480;-66
2021/05/03 14:07:14;;;;;;;7.90;4.10;;;;;;;;;;10112097;28;20039;-67
2021/05/03 14:12:11;;;;;;;2.33;1.20;;;;;;;;;;10109692;28;22075;-68
2021/05/03 14:17:09;;;;;;;3.10;2.30;;;;;;;;;;10109478;28;20050;-67
2021/05/03 14:22:06;;;;;;;1.27;1.17;;;;;;;;;;10116779;28;20046;-68
2021/05/03 14:27:04;;;;;;;0.77;0.77;;;;;;;;;;10155609;28;20041;-67
2021/05/03 14:32:11;;;;;;;0.80;0.70;;;;;;;;;;10152610;28;20050;-68
2021/05/03 14:37:09;;;;;;;0.80;0.75;;;;;;;;;;10155759;28;20062;-69
2021/05/03 14:42:06;;;;;;;1.30;1.20;;;;;;;;;;10154132;28;20038;-67
2021/05/03 14:47:07;;;;;;;2.90;1.67;;;;;;;;;;10158277;28;20628;-68
2021/05/03 14:52:08;;;;;;;2.65;1.85;;;;;;;;;;10135048;28;20858;-68
2021/05/03 14:57:16;;;;;;;4.95;2.95;;;;;;;;;;10156178;28;20042;-67
2021/05/03 15:02:16;;;;;;;3.15;2.42;;;;;;;;;;10121065;28;20049;-67
2021/05/03 15:07:16;;;;;;;4.63;3.58;;;;;;;;;;10152422;28;20384;-68
2021/05/03 15:12:23;;;;;;;4.22;2.97;;;;;;;;;;10124381;28;20717;-68
2021/05/03 15:22:36;;;;;;;6.20;2.83;;;;;;;;;;10161325;28;20045;-67
2021/05/03 15:37:40;;;;;;;4.38;2.60;;;;;;;;;;10154496;28;20089;-67
2021/05/03 15:42:38;;;;;;;3.23;2.73;;;;;;;;;;10167841;28;20520;-64
2021/05/03 15:47:36;;;;;;;3.30;2.73;;;;;;;;;;10124920;28;20038;-67
2021/05/03 15:52:37;;;;;;;4.63;3.03;;;;;;;;;;10133029;28;20496;-68
2021/05/03 15:57:34;;;;;;;6.18;3.05;;;;;;;;;;10150114;28;20049;-65
2021/05/03 16:02:32;;;;;;;7.60;3.30;;;;;;;;;;10155841;28;20027;-67
2021/05/03 16:07:29;;;;;;;1.37;1.20;;;;;;;;;;10158368;28;20347;-67
2021/05/03 16:12:27;;;;;;;0.90;0.90;;;;;;;;;;10171932;28;20408;-66
2021/05/03 16:17:24;;;;;;;1.97;1.67;;;;;;;;;;10154792;28;20027;-68
2021/05/03 16:22:21;;;;;;;2.53;1.30;;;;;;;;;;10151242;28;20039;-67
2021/05/03 16:27:19;;;;;;;7.60;4.73;;;;;;;;;;10167686;28;20045;-66
2021/05/03 16:32:16;;;;;;;4.53;3.23;;;;;;;;;;10157090;28;20416;-66
2021/05/03 16:37:14;;;;;;;5.83;4.43;;;;;;;;;;10158994;28;20027;-67
2021/05/03 16:42:11;;;;;;;3.93;1.90;;;;;;;;;;10128594;28;20031;-66
2021/05/03 16:47:09;;;;;;;2.07;1.33;;;;;;;;;;10121747;28;20132;-67
2021/05/03 16:52:06;;;;;;;2.20;0.90;;;;;;;;;;10165849;28;20039;-67
2021/05/03 16:57:04;;;;;;;5.07;3.33;;;;;;;;;;10168774;28;20039;-67
2021/05/03 17:02:01;;;;;;;2.80;1.73;;;;;;;;;;10164689;28;20045;-64
2021/05/03 17:06:58;;;;;;;3.60;2.00;;;;;;;;;;10165247;28;20039;-66
2021/05/03 17:11:56;;;;;;;1.97;1.57;;;;;;;;;;10153005;28;20134;-66
2021/05/03 17:16:53;;;;;;;4.30;1.50;;;;;;;;;;10163973;28;20043;-67
2021/05/03 17:21:51;;;;;;;1.17;0.87;;;;;;;;;;10170569;28;20039;-67
2021/05/03 17:26:48;;;;;;;1.70;1.03;;;;;;;;;;10166753;28;20083;-66
2021/05/03 17:31:46;;;;;;;2.13;1.93;;;;;;;;;;10157440;28;20038;-65
2021/05/03 17:36:43;;;;;;;5.00;1.53;;;;;;;;;;10163930;28;20059;-66
2021/05/03 17:41:41;;;;;;;5.43;2.47;;;;;;;;;;10153155;28;20058;-66
2021/05/03 17:46:39;;;;;;;5.57;3.50;;;;;;;;;;10160209;28;20049;-67
2021/05/03 17:51:37;;;;;;;17.67;4.20;;;;;;;;;;10171489;28;20043;-66
2021/05/03 17:56:35;;;;;;;5.30;2.67;;;;;;;;;;10146836;28;20134;-66
2021/05/03 18:01:36;;;;;;;8.82;3.38;;;;;;;;;;10157683;28;20516;-67
2021/05/03 18:06:34;;;;;;;7.55;3.55;;;;;;;;;;10140870;28;20054;-66
2021/05/03 18:11:32;;;;;;;10.05;2.13;;;;;;;;;;10158936;28;20031;-66
2021/05/03 18:16:30;;;;;;;5.28;2.10;;;;;;;;;;10164152;28;20517;-65
2021/05/03 18:21:29;;;;;;;3.33;2.40;;;;;;;;;;10159551;28;20687;-67
2021/05/03 18:26:27;;;;;;;0.50;0.50;;;;;;;;;;10148263;28;20129;-66
2021/05/03 18:31:28;;;;;;;4.47;2.03;;;;;;;;;;10160746;28;20490;-67
2021/05/03 18:36:25;;;;;;;4.25;1.92;;;;;;;;;;10146464;28;20133;-65
2021/05/03 18:41:22;;;;;;;5.13;2.20;;;;;;;;;;10139109;28;20628;-67
2021/05/03 18:46:20;;;;;;;4.03;2.43;;;;;;;;;;10165118;28;20504;-66
2021/05/03 18:51:18;;;;;;;3.87;2.23;;;;;;;;;;10160850;28;20035;-66
2021/05/03 18:56:15;;;;;;;3.75;2.40;;;;;;;;;;10151913;28;20042;-66
2021/05/03 19:01:14;;;;;;;2.17;1.93;;;;;;;;;;10147183;28;20051;-66
2021/05/03 19:06:12;;;;;;;3.08;2.53;;;;;;;;;;10144267;28;20038;-66
2021/05/03 19:11:09;;;;;;;3.70;2.30;;;;;;;;;;10148013;28;20039;-65
2021/05/03 19:16:07;;;;;;;6.50;3.40;;;;;;;;;;10166429;28;20039;-65
2021/05/03 19:21:04;;;;;;;3.80;2.70;;;;;;;;;;10160471;28;20031;-67
2021/05/03 19:26:02;;;;;;;3.10;2.33;;;;;;;;;;10164463;28;20521;-65
2021/05/03 19:31:05;;;;;;;4.50;2.57;;;;;;;;;;10140817;28;20035;-65
2021/05/03 19:36:02;;;;;;;3.38;2.97;;;;;;;;;;10151787;28;20441;-64
2021/05/03 19:41:00;;;;;;;4.80;2.77;;;;;;;;;;10159823;28;20130;-64
2021/05/03 19:46:02;;;;;;;4.83;2.60;;;;;;;;;;10161761;28;20042;-64
2021/05/03 19:51:09;;;;;;;7.55;3.08;;;;;;;;;;10160633;28;20043;-65
2021/05/03 20:06:54;;;;;;;6.00;2.85;;;;;;;;;;10150942;28;20156;-65
2021/05/03 20:11:51;;;;;;;5.53;2.95;;;;;;;;;;10161456;28;20038;-65
2021/05/03 20:16:49;;;;;;;3.60;2.80;;;;;;;;;;10145175;28;20045;-65
2021/05/03 20:21:47;;;;;;;4.57;2.63;;;;;;;;;;10152860;28;20523;-63
2021/05/03 20:26:45;;;;;;;;;;;;;;;;;;10148572;28;20035;-65
2021/05/03 20:31:43;;;;;;;7.05;3.90;;;;;;;;;;10163243;28;19918;-65
2021/05/03 20:41:50;;;;;;;4.93;3.47;;;;;;;;;;10154790;28;20047;-64
2021/05/03 20:46:47;;;;;;;7.57;2.83;;;;;;;;;;10163880;28;20516;-65
2021/05/03 20:51:44;;;;;;;6.97;4.30;;;;;;;;;;10169009;28;20035;-66
2021/05/03 20:56:42;;;;;;;9.70;3.87;;;;;;;;;;10160565;28;20608;-65
2021/05/03 21:01:39;;;;;;;7.23;4.50;;;;;;;;;;10167801;28;20568;-64
2021/05/03 21:06:37;;;;;;;8.97;6.90;;;;;;;;;;10134868;28;20489;-65
2021/05/03 21:11:35;;;;;;;9.17;5.13;;;;;;;;;;10158897;28;20129;-66
2021/05/03 21:16:32;;;;;;;9.77;5.82;;;;;;;;;;10168559;28;20035;-65
2021/05/03 21:21:30;;;;;;;10.60;5.63;;;;;;;;;;10140512;28;20454;-63
2021/05/03 21:26:29;;;;;;;7.40;4.63;;;;;;;;;;10163326;28;20041;-64
2021/05/03 21:31:26;;;;;;;11.00;6.03;;;;;;;;;;10143064;28;20283;-64
2021/05/03 21:36:26;;;;;;;9.20;5.40;;;;;;;;;;10157346;28;20035;-64
2021/05/03 21:41:24;;;;;;;10.85;6.82;;;;;;;;;;10159383;28;20043;-65
2021/05/03 21:46:22;;;;;;;11.50;6.35;;;;;;;;;;10154964;28;20038;-64
2021/05/03 21:51:19;;;;;;;10.63;5.80;;;;;;;;;;10164753;28;20067;-63
2021/05/03 21:56:18;;;;;;;10.53;6.00;;;;;;;;;;10156975;28;20039;-62
2021/05/03 22:01:16;;;;;;;10.02;5.75;;;;;;;;;;10161260;28;20492;-63
2021/05/03 22:06:13;;;;;;;13.37;6.40;;;;;;;;;;10150703;28;20878;-62
2021/05/03 22:11:14;;;;;;;11.53;6.97;;;;;;;;;;10151964;28;20495;-65
2021/05/03 22:16:14;;;;;;;13.10;7.90;;;;;;;;;;10149642;28;20580;-66
2021/05/03 22:26:32;;;;;;;10.23;6.47;;;;;;;;;;10158291;28;20042;-64
2021/05/03 22:31:29;;;;;;;8.32;6.18;;;;;;;;;;10134378;28;20035;-65
2021/05/03 22:36:32;;;;;;;14.50;7.63;;;;;;;;;;10151236;28;20035;-64
2021/05/03 23:09:30;;;;;;;9.40;6.40;;;;;;;;;;10165303;28;20365;-65
2021/05/03 23:17:59;;;;;;;6.20;4.57;;;;;;;;;;10165267;28;20035;-63
2021/05/03 23:22:56;;;;;;;9.30;5.07;;;;;;;;;;10160593;28;20027;-63
2021/05/03 23:27:53;;;;;;;10.40;5.93;;;;;;;;;;10165113;28;20049;-64
2021/05/03 23:32:51;;;;;;;8.77;6.03;;;;;;;;;;10158181;28;20257;-63
2021/05/03 23:37:48;;;;;;;7.93;4.80;;;;;;;;;;10159998;28;20215;-63
2021/05/03 23:42:46;;;;;;;5.93;4.03;;;;;;;;;;10154033;28;20087;-63
2021/05/03 23:47:43;;;;;;;9.97;5.93;;;;;;;;;;10120634;28;20505;-62
2021/05/03 23:52:41;;;;;;;10.60;6.40;;;;;;;;;;10157470;28;20073;-64
2021/05/03 23:57:38;;;;;;;7.80;5.27;;;;;;;;;;10150897;28;20450;-64
